»·PEaware :: N26172 KSMX-KBFL

N26172 :: KSMX-KBFL

FLIGHT INFORMATION

Flight Status: Arrived
Operator: Privately registered:
United States
More flights under this callsign
Pilot: Sean D. (32879)
Aircraft: CESSNA 172 SKYHAWK
(C172)
More flights by this aircraft type
Origin: KSMX Santa Maria Pub/Capt Hancock
United States
Destination: KBFL Meadows
United States
More flights between these airports :: More routes between these airports
Route: FLW
File this flight plan on PilotEdge
Remarks:
Altitude:
(Current/Filed)
5,500ft
Speed:
(Current/Filed)
120kts
Departed: 16-Jan-21 11:34 AM
Arrived: 16-Jan-21 12:24 PM
Distance/Time
Traveled:
76nm/0:50
Distance/Time
To Go:
Arrived

Flight Plot

Page will automatically refresh every two minutes.


Map Options




Map Legend


Flown Route
Filed Route
Departure Airport
Arrival Airport
Navaid (VOR, NDB)
Fix

Horizontal Profiles

Position Reports

Time Latitude Longitude Heading Altitude Ground
Speed
16-Jan-21 11:18 34.907028 -120.458891 162 265ft 0kts
16-Jan-21 11:19 34.907028 -120.458891 162 265ft 0kts
16-Jan-21 11:20 34.907015 -120.458886 162 265ft 0kts
16-Jan-21 11:21 34.907015 -120.458886 162 265ft 0kts
16-Jan-21 11:22 34.907015 -120.458886 162 265ft 0kts
16-Jan-21 11:23 34.907015 -120.458886 162 265ft 0kts
16-Jan-21 11:24 34.906421 -120.458475 222 265ft 0kts
16-Jan-21 11:25 34.906421 -120.458475 222 265ft 0kts
16-Jan-21 11:26 34.906421 -120.458475 222 265ft 0kts
16-Jan-21 11:26 34.905445 -120.458539 134 265ft 7kts
16-Jan-21 11:27 34.902394 -120.454874 133 265ft 17kts
16-Jan-21 11:29 34.897984 -120.449574 135 265ft 22kts
16-Jan-21 11:30 34.893985 -120.445164 181 265ft 9kts
16-Jan-21 11:30 34.893474 -120.445196 184 265ft 0kts
16-Jan-21 11:31 34.893474 -120.445196 184 265ft 0kts
16-Jan-21 11:32 34.892918 -120.445479 229 265ft 7kts
16-Jan-21 11:33 34.903834 -120.459492 325 773ft 78kts
16-Jan-21 11:34 34.914290 -120.446450 77 1766ft 80kts
16-Jan-21 11:35 34.915473 -120.418889 65 2673ft 79kts
16-Jan-21 11:36 34.921585 -120.394784 53 3523ft 69kts
16-Jan-21 11:37 34.929272 -120.370705 56 4141ft 84kts
16-Jan-21 11:38 34.937907 -120.343593 55 4788ft 84kts
16-Jan-21 11:39 34.946613 -120.317075 53 5446ft 82kts
16-Jan-21 11:40 34.957048 -120.284481 59 5503ft 113kts
16-Jan-21 11:41 34.967525 -120.251616 57 5502ft 98kts
16-Jan-21 11:42 34.978097 -120.219553 57 5498ft 103kts
16-Jan-21 11:43 34.989693 -120.184100 67 5329ft 113kts
16-Jan-21 11:44 35.001123 -120.148930 66 5330ft 108kts
16-Jan-21 11:45 35.012324 -120.114689 66 5330ft 108kts
16-Jan-21 11:46 35.023512 -120.080386 66 5330ft 108kts
16-Jan-21 11:47 35.034651 -120.046223 66 5330ft 108kts
16-Jan-21 11:48 35.045853 -120.011822 66 5330ft 108kts
16-Jan-21 11:49 35.056996 -119.977558 66 5330ft 108kts
16-Jan-21 11:50 35.068178 -119.943133 66 5330ft 108kts
16-Jan-21 11:51 35.079457 -119.908494 66 5332ft 112kts
16-Jan-21 11:52 35.091464 -119.871947 66 5330ft 115kts
16-Jan-21 11:53 35.104286 -119.835650 62 5330ft 115kts
16-Jan-21 11:54 35.118791 -119.800154 61 5330ft 115kts
16-Jan-21 11:55 35.133685 -119.764937 60 5330ft 115kts
16-Jan-21 11:56 35.148694 -119.729720 60 5330ft 115kts
16-Jan-21 11:57 35.163684 -119.694589 60 5330ft 115kts
16-Jan-21 11:58 35.178759 -119.659242 60 5330ft 115kts
16-Jan-21 11:59 35.194035 -119.623397 60 5277ft 119kts
16-Jan-21 12:00 35.209332 -119.587707 59 5248ft 116kts
16-Jan-21 12:01 35.224955 -119.552739 60 5248ft 115kts
16-Jan-21 12:02 35.240001 -119.517489 60 5248ft 115kts
16-Jan-21 12:03 35.254979 -119.482114 60 5248ft 115kts
16-Jan-21 12:04 35.269923 -119.446770 60 5248ft 115kts
16-Jan-21 12:05 35.284893 -119.411329 60 5248ft 115kts
16-Jan-21 12:06 35.299940 -119.375667 60 5248ft 116kts
16-Jan-21 12:07 35.315045 -119.339357 62 4634ft 117kts
16-Jan-21 12:08 35.329680 -119.304372 62 3804ft 109kts
16-Jan-21 12:09 35.343787 -119.270848 62 2991ft 109kts
16-Jan-21 12:10 35.358060 -119.236906 62 2169ft 109kts
16-Jan-21 12:11 35.372057 -119.203598 62 1487ft 104kts
16-Jan-21 12:12 35.385944 -119.170915 61 1281ft 108kts
16-Jan-21 12:13 35.409257 -119.152924 338 1284ft 114kts
16-Jan-21 12:14 35.432756 -119.176585 277 1277ft 107kts
16-Jan-21 12:15 35.412369 -119.183626 114 1279ft 106kts
16-Jan-21 12:16 35.417179 -119.146671 74 1279ft 108kts
16-Jan-21 12:17 35.424797 -119.110453 74 1278ft 103kts
16-Jan-21 12:18 35.422453 -119.078153 127 1272ft 85kts
16-Jan-21 12:19 35.405190 -119.057013 134 1279ft 85kts
16-Jan-21 12:20 35.390522 -119.034252 76 1049ft 85kts
16-Jan-21 12:21 35.407300 -119.025734 327 1131ft 73kts
16-Jan-21 12:22 35.422526 -119.042557 315 858ft 73kts
16-Jan-21 12:23 35.435365 -119.058056 317 488ft 30kts
16-Jan-21 12:24 35.436509 -119.057922 42 493ft 0kts
16-Jan-21 12:25 35.436538 -119.057887 45 493ft 1kts
16-Jan-21 12:26 35.434332 -119.054557 133 492ft 17kts
16-Jan-21 12:27 35.431872 -119.051585 133 494ft 9kts
16-Jan-21 12:28 35.430737 -119.049397 64 493ft 6kts
16-Jan-21 12:29 35.431274 -119.049234 226 496ft 0kts

Navigation Log

Ident Type
Flight plan parsing failed, navigation log unavailable